Antigo, WI (54409)

1:13 AM CDT on April 28, 2017 (GMT -0500)
Antigo, Wisconsin | | Change Station

Elev 1521 ft 45.14 °N, 89.16 °W | Updated 9 minutes ago

Overcast
Overcast
30.5 °F
Feels Like 24 °F
N
6.0
Wind Variable Wind from WSW
Gusts 15.0 mph

Today
High -- | Low -- °F
--% Chance of Precip.
Yesterday
High -- | Low -- °F
Precip. -- in
Pressure 29.72 in
Visibility 10.0 miles
Clouds Scattered Clouds 1400 ft
Mostly Cloudy 2200 ft
Overcast 2700 ft
Windchill 24 °F
Dew Point 27 °F
Humidity 86%
Rainfall 0.00 in
Snow Depth Not available.
5:49 AM 7:59 PM
Waxing Crescent, 5% visible
METAR KAIG 280555Z AUTO 27013G17KT 10SM SCT014 BKN022 OVC027 M01/M02 A2972 RMK AO2 T10131025 11005 21015
Pressure 29.72 in
Visibility 10.0 miles
Clouds Scattered Clouds 1400 ft
Mostly Cloudy 2200 ft
Overcast 2700 ft
Windchill 24 °F
Dew Point 27 °F
Humidity 86%
Rainfall 0.00 in
Snow Depth Not available.
5:49 AM 7:59 PM
Waxing Crescent, 5% visible
METAR KAIG 280555Z AUTO 27013G17KT 10SM SCT014 BKN022 OVC027 M01/M02 A2972 RMK AO2 T10131025 11005 21015

Get Severe Weather Alerts

Thanks for signing up!

Be on the lookout for a verification email in your inbox.

You'll start receiving the daily forecast at 8 AM.

×

10-Day Weather Forecast

Almanac

Astronomy

Apr. 28, 2017 Rise Set
Actual Time
Civil Twilight
Nautical Twilight
Astronomical Twilight
Moon
Length of Visible Light
Length of Day
Tomorrow will be .
, % of the Moon is Illuminated

Today's Extremes

State Highs State Lows

Community

WunderPhotos

WunderBlog® & News

Nearby

Air Quality

  Air Quality AQ Index Pollutant
Not available.

Snow Depth

Station Depth Elevation

Earthquake Activity

City Distance Mag. Time & Date
Minimum magnitude displayed is 2.5.

Coastal Water Temperatures

Place Temperature

Stations

Nearby Weather Stations

Station Location Temp. Windchill Dew Point Humidity Wind Precip. Elev Updated Type
                   

Watches & Warnings

There are currently no watches in effect.